Colorado Springs, CO

1:49 AM MST on February 07, 2016 (GMT -0700)
Crown Hill Mesa | | Change Station
CLOSE
Current Station
Personal Weather Station
Location: Colorado Springs, CO
Elevation: 6171 ft
Nearby Weather Stations

Elev 6171 ft 38.82 °N, 104.85 °W | Updated 9 seconds ago

Partly Cloudy
Partly Cloudy
47.7 °F
Feels Like 44 °F
N
8.9
Wind Variable Wind from WNW
Gusts 9.8 mph

Today
High -- | Low -- °F
--% Chance of Precip.
Yesterday
High -- | Low -- °F
Precip. -- in
Pressure 30.17 in
Visibility 10.0 miles
Clouds Few 14000 ft
Scattered Clouds 22000 ft
Windchill 44 °F
Dew Point 14 °F
Humidity 25%
Rainfall 0.00 in
Snow Depth Not available.
6:59 AM 5:27 PM
Waning Crescent, 2% visible
METAR KCOS 070754Z 36007KT 10SM FEW140 SCT220 M01/M12 A3013 RMK AO2 SLP214 T10061117
Pressure 30.17 in
Visibility 10.0 miles
Clouds Few 14000 ft
Scattered Clouds 22000 ft
Windchill 44 °F
Dew Point 14 °F
Humidity 25%
Rainfall 0.00 in
Snow Depth Not available.
6:59 AM 5:27 PM
Waning Crescent, 2% visible
METAR KCOS 070754Z 36007KT 10SM FEW140 SCT220 M01/M12 A3013 RMK AO2 SLP214 T10061117

10-Day Weather Forecast

Almanac

Astronomy

Feb. 07, 2016 Rise Set
Actual Time
Civil Twilight
Nautical Twilight
Astronomical Twilight
Moon
Length of Visible Light
Length of Day
Tomorrow will be .
, % of the Moon is Illuminated

Today's Extremes

State Highs State Lows

Community

WunderPhotos

Upload Photos

1,891,171 photos uploaded!

WunderBlog® & News

Nearby

Air Quality

  Air Quality AQ Index Pollutant
Not available.

Snow Depth

Station Depth Elevation

Earthquake Activity

City Distance Mag. Time & Date
Minimum magnitude displayed is 2.5.

Coastal Water Temperatures

Place Temperature

Stations

Nearby Weather Stations

Station Location Temp. Windchill Dew Point Humidity Wind Precip. Elev Updated Type
                   

Watches & Warnings

There are currently no watches in effect.